createdAt,value
2019-01-26T00:01:00.933Z,14.90
2019-01-26T00:03:30.430Z,14.93
2019-01-26T00:06:00.041Z,15.30
2019-01-26T00:08:29.351Z,13.32
2019-01-26T00:10:59.091Z,14.65
2019-01-26T00:13:30.091Z,13.95
2019-01-26T00:15:59.869Z,11.35
2019-01-26T00:18:30.955Z,14.13
2019-01-26T00:20:59.582Z,14.25
2019-01-26T00:23:29.039Z,12.47
2019-01-26T00:25:58.671Z,13.50
2019-01-26T00:28:28.308Z,14.47
2019-01-26T00:31:04.309Z,12.23
2019-01-26T00:33:35.147Z,10.58
2019-01-26T00:36:04.736Z,12.68
2019-01-26T00:38:34.470Z,10.00
2019-01-26T00:41:04.039Z,11.63
2019-01-26T00:43:33.581Z,13.88
2019-01-26T00:46:04.731Z,12.58
2019-01-26T00:48:34.446Z,10.48
2019-01-26T00:51:04.218Z,53.45
2019-01-26T00:53:33.927Z,11.68
2019-01-26T00:56:03.374Z,12.78
2019-01-26T00:58:33.046Z,13.75
2019-01-26T01:01:02.752Z,9.93
2019-01-26T01:03:32.402Z,15.75
2019-01-26T01:06:02.220Z,9.50
2019-01-26T01:08:31.858Z,13.22
2019-01-26T01:11:01.635Z,15.30
2019-01-26T01:13:31.256Z,12.88
2019-01-26T01:16:01.013Z,12.43
2019-01-26T01:18:30.563Z,11.90
2019-01-26T01:21:01.733Z,12.33
2019-01-26T01:23:30.073Z,13.35
2019-01-26T01:25:59.691Z,12.23
2019-01-26T01:28:29.427Z,13.13
2019-01-26T01:30:59.054Z,14.20
2019-01-26T01:33:28.520Z,19.12
2019-01-26T01:35:58.020Z,15.85
2019-01-26T01:38:27.585Z,16.48
2019-01-26T01:40:57.159Z,229.43
2019-01-26T01:43:26.763Z,17.15
2019-01-26T01:45:56.531Z,14.35
2019-01-26T01:48:26.194Z,12.82
2019-01-26T01:50:55.580Z,14.58
2019-01-26T01:53:25.594Z,13.48
2019-01-26T01:55:55.147Z,14.20
2019-01-26T01:58:25.039Z,16.35
2019-01-26T02:00:54.620Z,14.43
2019-01-26T02:03:24.229Z,37.38
2019-01-26T02:05:53.752Z,15.58
2019-01-26T02:08:23.231Z,15.90
2019-01-26T02:10:52.687Z,15.13
2019-01-26T02:13:22.467Z,15.00
2019-01-26T02:15:51.952Z,16.23
2019-01-26T02:18:21.887Z,19.75
2019-01-26T02:20:51.196Z,17.27
2019-01-26T02:23:20.878Z,17.10
2019-01-26T02:25:50.438Z,16.30
2019-01-26T02:28:20.013Z,17.37
2019-01-26T02:30:49.604Z,19.12
2019-01-26T02:33:19.354Z,15.53
2019-01-26T02:35:49.059Z,17.73
2019-01-26T02:38:18.528Z,19.45
2019-01-26T02:40:48.715Z,18.42
2019-01-26T02:43:18.220Z,18.32
2019-01-26T02:45:47.891Z,20.05
2019-01-26T02:48:17.850Z,19.87
2019-01-26T02:50:47.267Z,19.05
2019-01-26T02:53:16.751Z,15.13
2019-01-26T02:55:46.447Z,18.75
2019-01-26T02:58:16.118Z,20.92
2019-01-26T03:00:45.633Z,21.93
2019-01-26T03:03:15.268Z,20.45
2019-01-26T03:05:44.867Z,27.05
2019-01-26T03:08:14.561Z,23.15
2019-01-26T03:10:44.126Z,21.02
2019-01-26T03:13:13.839Z,20.77
2019-01-26T03:15:43.583Z,21.07
2019-01-26T03:18:13.259Z,19.32
2019-01-26T03:20:42.792Z,22.25
2019-01-26T03:23:12.523Z,23.92
2019-01-26T03:25:42.416Z,24.07
2019-01-26T03:28:11.921Z,23.75
2019-01-26T03:30:41.331Z,21.55
2019-01-26T03:33:11.003Z,25.02
2019-01-26T03:35:40.499Z,22.50
2019-01-26T03:38:10.105Z,23.10
2019-01-26T03:40:39.654Z,21.50
2019-01-26T03:43:09.309Z,22.98
2019-01-26T03:45:38.971Z,24.52
2019-01-26T03:48:09.227Z,30.97
2019-01-26T03:50:38.834Z,25.10
2019-01-26T03:53:08.720Z,25.65
2019-01-26T03:55:38.509Z,28.70
2019-01-26T03:58:08.329Z,27.60
2019-01-26T04:00:38.025Z,26.95
2019-01-26T04:03:07.665Z,27.32
2019-01-26T04:05:37.308Z,21.10
2019-01-26T04:08:06.937Z,26.60
2019-01-26T04:10:36.536Z,182.88
2019-01-26T04:13:06.023Z,26.65
2019-01-26T04:15:35.740Z,31.95
2019-01-26T04:18:05.431Z,30.43
2019-01-26T04:20:34.947Z,28.17
2019-01-26T04:23:04.796Z,32.55
2019-01-26T04:25:34.491Z,30.55
2019-01-26T04:28:04.097Z,32.67
2019-01-26T04:30:33.719Z,29.30
2019-01-26T04:33:03.420Z,32.73
2019-01-26T04:35:33.006Z,32.75
2019-01-26T04:38:02.762Z,27.55
2019-01-26T04:40:32.968Z,33.35
2019-01-26T04:43:02.550Z,36.48
2019-01-26T04:45:32.297Z,38.80
2019-01-26T04:48:01.838Z,36.45
2019-01-26T04:50:31.552Z,42.48
2019-01-26T04:53:01.100Z,36.33
2019-01-26T04:55:30.568Z,34.65
2019-01-26T04:58:00.286Z,39.55
2019-01-26T05:00:30.020Z,33.23
2019-01-26T05:02:59.626Z,35.65
2019-01-26T05:05:29.327Z,39.08
2019-01-26T05:07:58.990Z,41.75
2019-01-26T05:10:28.631Z,40.33
2019-01-26T05:12:58.256Z,39.70
2019-01-26T05:15:27.970Z,39.08
2019-01-26T05:17:57.504Z,43.85
2019-01-26T05:20:27.389Z,32.00
2019-01-26T05:22:57.030Z,42.78
2019-01-26T05:25:26.576Z,45.05
2019-01-26T05:27:56.297Z,39.73
2019-01-26T05:30:27.770Z,43.15
2019-01-26T05:32:57.261Z,44.45
2019-01-26T05:35:27.428Z,48.33
2019-01-26T05:37:57.175Z,50.10
2019-01-26T05:40:26.815Z,46.65
2019-01-26T05:42:56.528Z,48.13
2019-01-26T05:45:26.166Z,45.73
2019-01-26T05:47:55.887Z,41.53
2019-01-26T05:50:26.567Z,51.58
2019-01-26T05:52:56.074Z,44.05
2019-01-26T05:55:25.729Z,48.73
2019-01-26T05:57:55.626Z,45.58
2019-01-26T06:00:29.104Z,50.40
2019-01-26T06:02:58.878Z,46.02
2019-01-26T06:05:28.503Z,46.83
2019-01-26T06:07:58.151Z,48.58
2019-01-26T06:10:27.981Z,65.05
2019-01-26T06:12:58.882Z,48.23
2019-01-26T06:15:27.398Z,49.18
2019-01-26T06:17:57.342Z,234.10
2019-01-26T06:20:26.865Z,61.18
2019-01-26T06:22:56.600Z,39.10
2019-01-26T06:25:26.302Z,48.00
2019-01-26T06:27:55.975Z,51.68
2019-01-26T06:30:26.652Z,46.33
2019-01-26T06:32:56.355Z,41.95
2019-01-26T06:35:26.132Z,48.40
2019-01-26T06:37:55.736Z,49.85
2019-01-26T06:40:25.260Z,53.42
2019-01-26T06:42:55.039Z,54.70
2019-01-26T06:45:24.799Z,52.70
2019-01-26T06:47:54.306Z,52.15
2019-01-26T06:50:26.714Z,50.28
2019-01-26T06:52:56.307Z,52.35
2019-01-26T06:55:26.045Z,52.05
2019-01-26T06:57:55.881Z,442.70
2019-01-26T07:00:29.747Z,59.90
2019-01-26T07:02:59.513Z,43.60
2019-01-26T07:05:38.111Z,60.85
2019-01-26T07:08:08.023Z,54.48
2019-01-26T07:10:37.564Z,56.55
2019-01-26T07:13:07.312Z,51.65
2019-01-26T07:15:36.736Z,61.80
2019-01-26T07:18:09.587Z,43.55
2019-01-26T07:20:36.258Z,67.45
2019-01-26T07:23:06.040Z,60.63
2019-01-26T07:25:35.624Z,57.93
2019-01-26T07:28:05.135Z,59.73
2019-01-26T07:30:34.895Z,59.88
2019-01-26T07:33:04.706Z,51.30
2019-01-26T07:35:34.423Z,50.45
2019-01-26T07:38:04.233Z,58.48
2019-01-26T07:40:34.028Z,60.30
2019-01-26T07:43:03.507Z,49.23
2019-01-26T07:45:33.347Z,58.13
2019-01-26T07:48:02.851Z,37.93
2019-01-26T07:50:32.431Z,55.10
2019-01-26T07:53:02.171Z,61.25
2019-01-26T07:55:31.780Z,221.20
2019-01-26T07:58:01.345Z,69.87
2019-01-26T08:00:30.999Z,67.00
2019-01-26T08:03:00.604Z,57.70
2019-01-26T08:05:30.173Z,54.73
2019-01-26T08:07:59.722Z,43.98
2019-01-26T08:10:29.399Z,61.40
2019-01-26T08:12:58.940Z,60.55
2019-01-26T08:15:32.215Z,60.90
2019-01-26T08:18:01.923Z,59.88
2019-01-26T08:20:31.640Z,61.80
2019-01-26T08:23:01.151Z,71.80
2019-01-26T08:25:30.930Z,66.25
2019-01-26T08:28:00.619Z,64.22
2019-01-26T08:30:30.156Z,61.18
2019-01-26T08:32:59.871Z,57.78
2019-01-26T08:35:29.585Z,56.48
2019-01-26T08:37:59.435Z,55.40
2019-01-26T08:40:29.175Z,68.33
2019-01-26T08:42:58.771Z,70.57
2019-01-26T08:45:28.451Z,58.02
2019-01-26T08:47:58.015Z,61.90
2019-01-26T08:50:27.668Z,54.70
2019-01-26T08:52:58.995Z,65.85
2019-01-26T08:55:28.406Z,67.78
2019-01-26T08:57:58.032Z,62.23
2019-01-26T09:00:28.536Z,63.00
2019-01-26T09:05:06.021Z,54.15
2019-01-26T09:07:35.884Z,66.22
2019-01-26T09:10:05.696Z,44.88
2019-01-26T09:12:35.162Z,50.08
2019-01-26T09:15:05.123Z,65.30
2019-01-26T09:17:34.689Z,58.50
2019-01-26T09:20:04.370Z,65.35
2019-01-26T09:22:34.049Z,65.40
2019-01-26T09:25:03.952Z,67.85
2019-01-26T09:27:33.669Z,114.12
2019-01-26T09:30:03.412Z,74.17
2019-01-26T09:32:32.845Z,62.20
2019-01-26T09:35:02.483Z,51.40
2019-01-26T09:37:32.415Z,68.15
2019-01-26T09:40:01.884Z,62.00
2019-01-26T09:42:31.685Z,59.77
2019-01-26T09:45:01.343Z,62.93
2019-01-26T09:47:30.909Z,63.33
2019-01-26T09:50:00.415Z,75.15
2019-01-26T09:52:30.177Z,61.63
2019-01-26T09:54:59.948Z,66.82
2019-01-26T09:57:29.587Z,63.40
2019-01-26T09:59:59.321Z,61.77
2019-01-26T10:02:28.950Z,59.83
2019-01-26T10:04:58.467Z,62.60
2019-01-26T10:07:28.374Z,57.35
2019-01-26T10:09:58.095Z,64.07
2019-01-26T10:12:27.655Z,51.28
2019-01-26T10:14:57.450Z,49.53
2019-01-26T10:17:26.917Z,57.23
2019-01-26T10:19:56.540Z,62.35
2019-01-26T10:22:26.063Z,59.48
2019-01-26T10:24:55.433Z,46.37
2019-01-26T10:27:24.916Z,102.05
2019-01-26T10:29:54.599Z,61.42
2019-01-26T10:32:24.340Z,127.87
2019-01-26T10:34:53.868Z,45.55
2019-01-26T10:37:25.624Z,54.18
2019-01-26T10:39:55.279Z,50.17
2019-01-26T10:42:27.305Z,44.08
2019-01-26T10:44:57.101Z,51.70
2019-01-26T10:47:26.663Z,42.65
2019-01-26T10:49:56.254Z,59.03
2019-01-26T10:52:25.951Z,71.47
2019-01-26T10:54:55.651Z,51.35
2019-01-26T10:57:25.179Z,51.02
2019-01-26T10:59:54.774Z,51.85
2019-01-26T11:02:24.387Z,50.38
2019-01-26T11:04:54.408Z,51.15
2019-01-26T11:07:24.093Z,54.00
2019-01-26T11:09:53.668Z,57.88
2019-01-26T11:12:23.135Z,55.28
2019-01-26T11:14:52.838Z,53.08
2019-01-26T11:17:22.431Z,56.13
2019-01-26T11:19:52.177Z,57.25
2019-01-26T11:22:21.870Z,58.58
2019-01-26T11:24:51.579Z,62.08
2019-01-26T11:27:21.212Z,60.43
2019-01-26T11:29:51.131Z,50.10
2019-01-26T11:32:20.690Z,60.08
2019-01-26T11:34:50.398Z,70.52
2019-01-26T11:37:20.064Z,54.70
2019-01-26T11:39:53.767Z,53.17
2019-01-26T11:42:23.440Z,58.02
2019-01-26T11:44:58.076Z,54.98
2019-01-26T11:47:27.574Z,59.05
2019-01-26T11:49:59.221Z,59.30
2019-01-26T11:52:28.829Z,62.35
2019-01-26T11:55:14.007Z,57.70
2019-01-26T11:57:43.619Z,56.40
2019-01-26T12:00:29.131Z,48.83
2019-01-26T12:03:09.928Z,60.08
2019-01-26T12:05:44.785Z,58.63
2019-01-26T12:08:14.537Z,50.00
2019-01-26T12:10:44.023Z,59.60
2019-01-26T12:13:14.069Z,58.58
2019-01-26T12:15:43.583Z,288.70
2019-01-26T12:18:13.243Z,48.83
2019-01-26T12:20:42.900Z,65.70
2019-01-26T12:23:12.598Z,61.88
2019-01-26T12:25:42.266Z,55.30
2019-01-26T12:28:12.183Z,48.25
2019-01-26T12:30:41.786Z,61.83
2019-01-26T12:33:11.313Z,50.17
2019-01-26T12:35:41.056Z,57.90
2019-01-26T12:38:10.522Z,55.90
2019-01-26T12:40:40.231Z,49.93
2019-01-26T12:43:09.884Z,58.95
2019-01-26T12:45:39.279Z,55.20
2019-01-26T12:48:08.604Z,55.75
2019-01-26T12:50:38.344Z,57.23
2019-01-26T12:53:07.804Z,56.77
2019-01-26T12:55:38.893Z,58.73
2019-01-26T12:58:08.597Z,62.88
2019-01-26T13:00:38.167Z,58.10
2019-01-26T13:03:07.827Z,48.73
2019-01-26T13:05:37.443Z,52.65
2019-01-26T13:08:06.984Z,56.58
2019-01-26T13:10:39.858Z,49.60
2019-01-26T13:13:09.422Z,36.70
2019-01-26T13:15:39.513Z,53.70
2019-01-26T13:18:09.127Z,48.68
2019-01-26T13:20:38.618Z,56.45
2019-01-26T13:23:08.384Z,58.98
2019-01-26T13:25:38.124Z,44.98
2019-01-26T13:28:07.641Z,47.50
2019-01-26T13:30:37.309Z,48.42
2019-01-26T13:33:06.972Z,62.15
2019-01-26T13:35:36.739Z,56.75
2019-01-26T13:38:06.407Z,58.95
2019-01-26T13:40:36.284Z,62.38
2019-01-26T13:43:05.977Z,59.45
2019-01-26T13:45:35.703Z,55.67
2019-01-26T13:48:05.451Z,50.03
2019-01-26T13:50:35.224Z,52.58
2019-01-26T13:53:05.148Z,59.75
2019-01-26T13:55:35.077Z,58.70
2019-01-26T13:58:06.225Z,56.48
2019-01-26T14:00:35.632Z,58.15
2019-01-26T14:03:05.403Z,84.47
2019-01-26T14:05:35.025Z,282.85
2019-01-26T14:08:04.610Z,66.95
2019-01-26T14:10:34.410Z,117.62
2019-01-26T14:13:04.195Z,65.00
2019-01-26T14:15:33.768Z,57.73
2019-01-26T14:18:03.435Z,54.50
2019-01-26T14:20:33.189Z,61.58
2019-01-26T14:23:02.919Z,61.80
2019-01-26T14:25:32.635Z,55.17
2019-01-26T14:28:02.344Z,55.38
2019-01-26T14:30:35.948Z,56.30
2019-01-26T14:33:05.855Z,45.25
2019-01-26T14:35:35.560Z,60.33
2019-01-26T14:38:10.630Z,59.83
2019-01-26T14:40:40.383Z,54.15
2019-01-26T14:43:10.099Z,58.15
2019-01-26T14:45:39.637Z,59.40
2019-01-26T14:48:09.293Z,61.15
2019-01-26T14:50:38.907Z,66.82
2019-01-26T14:53:08.911Z,48.92
2019-01-26T14:55:38.955Z,67.25
2019-01-26T14:58:10.591Z,66.53
2019-01-26T15:00:40.336Z,64.40
2019-01-26T15:03:09.924Z,66.53
2019-01-26T15:05:39.588Z,73.00
2019-01-26T15:08:09.284Z,64.22
2019-01-26T15:10:39.058Z,65.25
2019-01-26T15:13:08.800Z,59.88
2019-01-26T15:15:38.488Z,58.33
2019-01-26T15:18:08.372Z,58.90
2019-01-26T15:20:39.743Z,59.60
2019-01-26T15:23:09.605Z,51.73
2019-01-26T15:25:39.066Z,46.20
2019-01-26T15:28:08.810Z,57.50
2019-01-26T15:30:40.438Z,53.10
2019-01-26T15:33:11.189Z,54.98
2019-01-26T15:35:40.005Z,59.18
2019-01-26T15:38:10.819Z,64.12
2019-01-26T15:40:40.580Z,53.92
2019-01-26T15:46:07.906Z,53.28
2019-01-26T15:48:37.330Z,64.67
2019-01-26T15:51:07.062Z,76.87
2019-01-26T15:53:36.735Z,73.75
2019-01-26T15:56:06.475Z,70.50
2019-01-26T15:58:36.010Z,101.35
2019-01-26T16:01:07.328Z,73.05
2019-01-26T16:03:36.934Z,75.62
2019-01-26T16:06:06.829Z,63.92
2019-01-26T16:08:36.771Z,67.00
2019-01-26T16:11:06.400Z,68.52
2019-01-26T16:13:35.998Z,71.28
2019-01-26T16:16:05.654Z,76.00
2019-01-26T16:18:35.568Z,65.80
2019-01-26T16:21:05.277Z,69.22
2019-01-26T16:23:35.022Z,67.87
2019-01-26T16:26:04.497Z,70.55
2019-01-26T16:28:34.147Z,71.77
2019-01-26T16:31:03.839Z,73.45
2019-01-26T16:33:33.615Z,67.80
2019-01-26T16:36:03.107Z,67.32
2019-01-26T16:38:32.920Z,64.37
2019-01-26T16:41:02.646Z,82.92
2019-01-26T16:43:32.385Z,178.60
2019-01-26T16:46:01.995Z,931.67
2019-01-26T16:48:31.835Z,884.90
2019-01-26T16:51:01.575Z,360.75
2019-01-26T16:53:31.409Z,628.50
2019-01-26T16:56:01.064Z,646.42
2019-01-26T16:58:30.692Z,1605.60
2019-01-26T17:01:01.349Z,1218.78
2019-01-26T17:03:30.832Z,992.37
2019-01-26T17:06:00.429Z,1561.03
2019-01-26T17:08:30.353Z,1461.53
2019-01-26T17:10:59.943Z,1740.10
2019-01-26T17:13:29.676Z,1999.90
2019-01-26T17:15:59.466Z,1999.90
2019-01-26T17:18:28.976Z,1999.90
2019-01-26T17:20:58.595Z,1999.90
2019-01-26T17:23:28.263Z,1054.58
2019-01-26T17:25:57.929Z,1999.90
2019-01-26T17:28:27.407Z,1999.90
2019-01-26T17:30:56.731Z,1999.90
2019-01-26T17:33:26.632Z,1999.90
2019-01-26T17:35:56.329Z,1999.90
2019-01-26T17:38:26.112Z,1999.90
2019-01-26T17:40:55.481Z,862.25
2019-01-26T17:43:24.945Z,1999.90
2019-01-26T17:45:54.482Z,1999.90
2019-01-26T17:48:24.185Z,1375.33
2019-01-26T17:50:53.912Z,1812.80
2019-01-26T17:53:23.401Z,1999.90
2019-01-26T17:55:52.908Z,1292.75
2019-01-26T17:58:22.660Z,270.48
2019-01-26T18:00:56.498Z,148.15
2019-01-26T18:03:26.328Z,204.00
2019-01-26T18:05:55.947Z,75.90
2019-01-26T18:08:25.647Z,373.02
2019-01-26T18:10:55.364Z,253.67
2019-01-26T18:13:25.065Z,909.55
2019-01-26T18:15:54.638Z,61.98
2019-01-26T18:18:24.301Z,53.73
2019-01-26T18:20:53.890Z,48.40
2019-01-26T18:23:31.511Z,56.42
2019-01-26T18:26:01.147Z,58.98
2019-01-26T18:28:30.654Z,60.08
2019-01-26T18:31:00.493Z,61.88
2019-01-26T18:33:30.356Z,68.52
2019-01-26T18:35:59.835Z,64.87
2019-01-26T18:38:29.256Z,65.57
2019-01-26T18:40:58.954Z,62.13
2019-01-26T18:43:28.565Z,94.45
2019-01-26T18:45:58.119Z,82.90
2019-01-26T18:48:27.723Z,79.12
2019-01-26T18:50:57.299Z,71.40
2019-01-26T18:53:27.752Z,82.15
2019-01-26T18:55:57.344Z,74.05
2019-01-26T18:58:26.827Z,59.50
2019-01-26T19:00:56.584Z,73.57
2019-01-26T19:03:33.420Z,76.20
2019-01-26T19:06:03.285Z,70.40
2019-01-26T19:08:32.840Z,77.15
2019-01-26T19:11:02.420Z,78.55
2019-01-26T19:13:32.414Z,77.32
2019-01-26T19:16:02.086Z,88.55
2019-01-26T19:18:31.854Z,113.45
2019-01-26T19:21:03.263Z,74.10
2019-01-26T19:23:32.160Z,83.03
2019-01-26T19:26:01.835Z,79.77
2019-01-26T19:28:31.584Z,78.78
2019-01-26T19:31:01.104Z,81.45
2019-01-26T19:33:30.866Z,85.03
2019-01-26T19:36:00.804Z,77.62
2019-01-26T19:38:30.292Z,82.35
2019-01-26T19:40:59.798Z,83.40
2019-01-26T19:43:29.431Z,85.00
2019-01-26T19:45:58.758Z,83.55
2019-01-26T19:48:28.255Z,79.92
2019-01-26T19:50:57.839Z,81.63
2019-01-26T19:53:27.553Z,75.65
2019-01-26T19:55:57.083Z,73.15
2019-01-26T19:58:26.767Z,73.28
2019-01-26T20:00:56.198Z,74.45
2019-01-26T20:03:25.800Z,63.38
2019-01-26T20:05:55.319Z,70.22
2019-01-26T20:08:25.059Z,63.05
2019-01-26T20:10:54.663Z,64.65
2019-01-26T20:13:24.541Z,58.73
2019-01-26T20:15:54.064Z,64.22
2019-01-26T20:18:24.017Z,70.45
2019-01-26T20:20:53.709Z,69.07
2019-01-26T20:23:23.242Z,64.87
2019-01-26T20:25:52.640Z,55.10
2019-01-26T20:28:22.537Z,68.07
2019-01-26T20:30:52.163Z,68.72
2019-01-26T20:33:21.733Z,67.87
2019-01-26T20:35:51.210Z,67.37
2019-01-26T20:38:20.782Z,67.05
2019-01-26T20:40:50.495Z,69.75
2019-01-26T20:43:20.152Z,65.67
2019-01-26T20:45:49.712Z,91.15
2019-01-26T20:48:19.372Z,417.25
2019-01-26T20:50:49.137Z,69.62
2019-01-26T20:53:18.615Z,71.50
2019-01-26T20:55:48.398Z,68.05
2019-01-26T20:58:18.063Z,67.03
2019-01-26T21:00:48.003Z,67.30
2019-01-26T21:03:18.057Z,68.55
2019-01-26T21:05:47.791Z,66.85
2019-01-26T21:08:17.428Z,62.03
2019-01-26T21:10:47.099Z,75.03
2019-01-26T21:13:16.821Z,70.35
2019-01-26T21:15:46.439Z,71.17
2019-01-26T21:18:16.190Z,63.23
2019-01-26T21:20:46.732Z,54.03
2019-01-26T21:23:18.899Z,69.65
2019-01-26T21:25:48.684Z,69.92
2019-01-26T21:28:18.371Z,67.45
2019-01-26T21:30:47.984Z,73.70
2019-01-26T21:33:17.556Z,71.05
2019-01-26T21:35:47.221Z,74.22
2019-01-26T21:38:16.906Z,75.37
2019-01-26T21:40:46.845Z,74.45
2019-01-26T21:43:16.544Z,71.42
2019-01-26T21:45:46.288Z,86.10
2019-01-26T21:48:15.995Z,73.95
2019-01-26T21:50:45.459Z,73.45
2019-01-26T21:53:15.060Z,70.72
2019-01-26T21:55:44.704Z,67.08
2019-01-26T21:58:14.268Z,67.27
2019-01-26T22:00:43.813Z,69.60
2019-01-26T22:03:13.550Z,44.48
2019-01-26T22:05:43.107Z,67.60
2019-01-26T22:08:12.889Z,72.05
2019-01-26T22:10:42.375Z,69.58
2019-01-26T22:13:11.931Z,73.70
2019-01-26T22:15:41.469Z,72.37
2019-01-26T22:18:11.194Z,63.92
2019-01-26T22:20:40.765Z,68.10
2019-01-26T22:23:10.363Z,59.42
2019-01-26T22:25:40.295Z,69.85
2019-01-26T22:28:09.995Z,66.53
2019-01-26T22:30:39.713Z,65.20
2019-01-26T22:33:09.322Z,69.35
2019-01-26T22:35:39.052Z,70.17
2019-01-26T22:38:08.848Z,161.25
2019-01-26T22:40:38.651Z,66.15
2019-01-26T22:43:08.391Z,63.85
2019-01-26T22:45:38.162Z,58.90
2019-01-26T22:48:07.954Z,68.22
2019-01-26T22:50:37.531Z,64.50
2019-01-26T22:53:07.175Z,70.40
2019-01-26T22:55:37.119Z,66.07
2019-01-26T22:58:07.140Z,69.03
2019-01-26T23:01:18.319Z,62.62
2019-01-26T23:06:03.495Z,59.03
2019-01-26T23:08:33.436Z,66.25
2019-01-26T23:11:11.066Z,68.28
2019-01-26T23:14:10.699Z,65.00
2019-01-26T23:18:54.627Z,60.20
2019-01-26T23:21:35.071Z,66.92
2019-01-26T23:24:43.303Z,61.33
2019-01-26T23:27:31.645Z,65.92
2019-01-26T23:31:15.147Z,65.03
2019-01-26T23:33:45.383Z,58.05
2019-01-26T23:36:15.395Z,66.02
2019-01-26T23:38:45.155Z,62.20
2019-01-26T23:41:15.006Z,56.42
2019-01-26T23:43:44.730Z,63.10
2019-01-26T23:46:14.283Z,55.70
2019-01-26T23:48:44.013Z,61.77
2019-01-26T23:51:13.731Z,59.23
2019-01-26T23:53:43.392Z,59.77
2019-01-26T23:56:13.311Z,61.80
2019-01-26T23:58:42.996Z,64.85
